sensor_id;sensor_type;location;lat;lon;timestamp;P1;durP1;ratioP1;P2;durP2;ratioP2
51366;SDS011;37458;49.428;8.646;2023-02-14T07:47:59;19.23;;;11.80;;
51366;SDS011;37458;49.428;8.646;2023-02-14T07:50:28;20.90;;;12.37;;
51366;SDS011;37458;49.428;8.646;2023-02-14T07:55:30;19.77;;;12.70;;
51366;SDS011;37458;49.428;8.646;2023-02-14T07:57:56;21.83;;;13.97;;
51366;SDS011;37458;49.428;8.646;2023-02-14T08:00:22;27.27;;;15.00;;
51366;SDS011;37458;49.428;8.646;2023-02-14T08:02:48;23.13;;;13.30;;
51366;SDS011;37458;49.428;8.646;2023-02-14T08:05:14;25.67;;;14.23;;
51366;SDS011;37458;49.428;8.646;2023-02-14T08:07:41;25.47;;;14.50;;
51366;SDS011;37458;49.428;8.646;2023-02-14T08:10:08;25.63;;;14.70;;
51366;SDS011;37458;49.428;8.646;2023-02-14T08:12:34;27.30;;;15.63;;
51366;SDS011;37458;49.428;8.646;2023-02-14T08:15:19;26.93;;;16.37;;
51366;SDS011;37458;49.428;8.646;2023-02-14T08:18:03;28.17;;;15.77;;
51366;SDS011;37458;49.428;8.646;2023-02-14T08:20:29;26.37;;;15.27;;
51366;SDS011;37458;49.428;8.646;2023-02-14T08:22:55;24.60;;;15.07;;
51366;SDS011;37458;49.428;8.646;2023-02-14T08:25:22;24.60;;;15.20;;
51366;SDS011;37458;49.428;8.646;2023-02-14T08:27:48;25.00;;;15.27;;
51366;SDS011;37458;49.428;8.646;2023-02-14T08:30:14;22.97;;;14.23;;
51366;SDS011;37458;49.428;8.646;2023-02-14T08:32:40;28.23;;;15.57;;
51366;SDS011;37458;49.428;8.646;2023-02-14T08:35:06;22.23;;;14.90;;
51366;SDS011;37458;49.428;8.646;2023-02-14T08:37:32;23.20;;;13.93;;
51366;SDS011;37458;49.428;8.646;2023-02-14T08:39:58;25.77;;;14.60;;
51366;SDS011;37458;49.428;8.646;2023-02-14T08:42:24;29.03;;;16.00;;
51366;SDS011;37458;49.428;8.646;2023-02-14T08:44:50;21.13;;;13.67;;
51366;SDS011;37458;49.428;8.646;2023-02-14T08:47:16;28.97;;;15.53;;
51366;SDS011;37458;49.428;8.646;2023-02-14T08:49:42;25.70;;;14.63;;
51366;SDS011;37458;49.428;8.646;2023-02-14T08:52:08;27.50;;;14.77;;
51366;SDS011;37458;49.428;8.646;2023-02-14T08:54:34;25.83;;;14.87;;
51366;SDS011;37458;49.428;8.646;2023-02-14T08:57:01;23.37;;;14.37;;
51366;SDS011;37458;49.428;8.646;2023-02-14T08:59:27;22.13;;;13.97;;
51366;SDS011;37458;49.428;8.646;2023-02-14T09:01:53;21.93;;;13.60;;
51366;SDS011;37458;49.428;8.646;2023-02-14T09:04:19;23.33;;;13.87;;
51366;SDS011;37458;49.428;8.646;2023-02-14T09:06:45;21.93;;;14.30;;
51366;SDS011;37458;49.428;8.646;2023-02-14T09:09:11;23.43;;;14.77;;
51366;SDS011;37458;49.428;8.646;2023-02-14T09:11:38;24.90;;;14.37;;
51366;SDS011;37458;49.428;8.646;2023-02-14T09:14:04;20.37;;;13.27;;
51366;SDS011;37458;49.428;8.646;2023-02-14T09:16:30;22.10;;;14.00;;
51366;SDS011;37458;49.428;8.646;2023-02-14T09:18:56;20.37;;;13.33;;
51366;SDS011;37458;49.428;8.646;2023-02-14T09:21:23;19.73;;;13.60;;
51366;SDS011;37458;49.428;8.646;2023-02-14T09:23:49;22.13;;;13.63;;
51366;SDS011;37458;49.428;8.646;2023-02-14T09:26:16;25.37;;;14.17;;
51366;SDS011;37458;49.428;8.646;2023-02-14T09:28:42;22.87;;;13.90;;
51366;SDS011;37458;49.428;8.646;2023-02-14T09:33:34;20.97;;;13.43;;
51366;SDS011;37458;49.428;8.646;2023-02-14T09:36:00;22.07;;;14.27;;
51366;SDS011;37458;49.428;8.646;2023-02-14T09:38:45;21.00;;;13.63;;
51366;SDS011;37458;49.428;8.646;2023-02-14T09:43:48;19.47;;;12.97;;
51366;SDS011;37458;49.428;8.646;2023-02-14T09:46:16;19.73;;;13.80;;
51366;SDS011;37458;49.428;8.646;2023-02-14T09:48:44;20.43;;;13.93;;
51366;SDS011;37458;49.428;8.646;2023-02-14T09:51:13;19.83;;;13.10;;
51366;SDS011;37458;49.428;8.646;2023-02-14T09:53:43;20.97;;;13.53;;
51366;SDS011;37458;49.428;8.646;2023-02-14T09:56:20;22.47;;;14.40;;
51366;SDS011;37458;49.428;8.646;2023-02-14T09:59:10;21.07;;;13.73;;
51366;SDS011;37458;49.428;8.646;2023-02-14T10:01:41;22.03;;;13.83;;
51366;SDS011;37458;49.428;8.646;2023-02-14T10:04:27;23.03;;;13.53;;
51366;SDS011;37458;49.428;8.646;2023-02-14T10:07:05;22.23;;;14.53;;
51366;SDS011;37458;49.428;8.646;2023-02-14T10:09:42;20.50;;;13.60;;
51366;SDS011;37458;49.428;8.646;2023-02-14T10:12:20;20.87;;;13.13;;
51366;SDS011;37458;49.428;8.646;2023-02-14T10:14:46;19.67;;;12.90;;
51366;SDS011;37458;49.428;8.646;2023-02-14T10:17:14;20.17;;;13.63;;
51366;SDS011;37458;49.428;8.646;2023-02-14T10:19:52;19.77;;;13.57;;
51366;SDS011;37458;49.428;8.646;2023-02-14T10:22:20;18.63;;;13.43;;
51366;SDS011;37458;49.428;8.646;2023-02-14T10:24:50;20.07;;;13.73;;
51366;SDS011;37458;49.428;8.646;2023-02-14T10:29:43;19.07;;;13.63;;
51366;SDS011;37458;49.428;8.646;2023-02-14T10:50:42;22.37;;;14.67;;
51366;SDS011;37458;49.428;8.646;2023-02-14T10:58:23;19.37;;;13.90;;
51366;SDS011;37458;49.428;8.646;2023-02-14T11:03:19;20.90;;;14.67;;
51366;SDS011;37458;49.428;8.646;2023-02-14T11:05:46;22.87;;;15.33;;
51366;SDS011;37458;49.428;8.646;2023-02-14T11:11:00;26.23;;;15.43;;
51366;SDS011;37458;49.428;8.646;2023-02-14T11:16:00;21.37;;;14.90;;
51366;SDS011;37458;49.428;8.646;2023-02-14T11:18:27;26.10;;;14.50;;
51366;SDS011;37458;49.428;8.646;2023-02-14T11:26:15;24.03;;;15.47;;
51366;SDS011;37458;49.428;8.646;2023-02-14T11:28:44;23.27;;;15.23;;
51366;SDS011;37458;49.428;8.646;2023-02-14T11:31:10;23.50;;;15.53;;
51366;SDS011;37458;49.428;8.646;2023-02-14T11:33:40;26.33;;;15.63;;
51366;SDS011;37458;49.428;8.646;2023-02-14T11:36:11;23.00;;;14.37;;
51366;SDS011;37458;49.428;8.646;2023-02-14T11:38:38;22.03;;;15.60;;
51366;SDS011;37458;49.428;8.646;2023-02-14T11:41:05;23.93;;;16.77;;
51366;SDS011;37458;49.428;8.646;2023-02-14T11:43:36;27.47;;;16.60;;
51366;SDS011;37458;49.428;8.646;2023-02-14T11:49:00;26.43;;;16.70;;
51366;SDS011;37458;49.428;8.646;2023-02-14T11:51:30;26.27;;;16.93;;
51366;SDS011;37458;49.428;8.646;2023-02-14T11:57:07;25.73;;;16.27;;
51366;SDS011;37458;49.428;8.646;2023-02-14T11:59:41;26.17;;;16.93;;
51366;SDS011;37458;49.428;8.646;2023-02-14T12:07:51;27.23;;;17.13;;
51366;SDS011;37458;49.428;8.646;2023-02-14T12:10:20;27.13;;;17.20;;
51366;SDS011;37458;49.428;8.646;2023-02-14T12:15:29;26.67;;;16.73;;
51366;SDS011;37458;49.428;8.646;2023-02-14T12:20:52;25.97;;;17.67;;
51366;SDS011;37458;49.428;8.646;2023-02-14T12:23:23;26.03;;;16.10;;
51366;SDS011;37458;49.428;8.646;2023-02-14T12:25:56;23.97;;;16.90;;
51366;SDS011;37458;49.428;8.646;2023-02-14T12:28:28;26.13;;;18.57;;
51366;SDS011;37458;49.428;8.646;2023-02-14T12:30:55;22.93;;;17.07;;
51366;SDS011;37458;49.428;8.646;2023-02-14T12:33:22;23.53;;;16.73;;
51366;SDS011;37458;49.428;8.646;2023-02-14T12:35:54;24.33;;;16.87;;
51366;SDS011;37458;49.428;8.646;2023-02-14T12:54:11;29.27;;;19.23;;
51366;SDS011;37458;49.428;8.646;2023-02-14T13:06:40;26.57;;;18.03;;
51366;SDS011;37458;49.428;8.646;2023-02-14T13:11:46;25.17;;;17.17;;
51366;SDS011;37458;49.428;8.646;2023-02-14T13:16:53;27.07;;;18.47;;
51366;SDS011;37458;49.428;8.646;2023-02-14T13:21:46;26.40;;;18.73;;
51366;SDS011;37458;49.428;8.646;2023-02-14T13:24:24;25.03;;;17.80;;
51366;SDS011;37458;49.428;8.646;2023-02-14T13:26:51;27.60;;;18.40;;
51366;SDS011;37458;49.428;8.646;2023-02-14T13:29:19;26.43;;;17.23;;
51366;SDS011;37458;49.428;8.646;2023-02-14T13:31:47;28.40;;;18.27;;
51366;SDS011;37458;49.428;8.646;2023-02-14T13:34:33;28.53;;;18.20;;
51366;SDS011;37458;49.428;8.646;2023-02-14T13:37:01;29.50;;;18.30;;
51366;SDS011;37458;49.428;8.646;2023-02-14T13:39:35;27.27;;;17.47;;
51366;SDS011;37458;49.428;8.646;2023-02-14T13:42:03;27.87;;;19.37;;
51366;SDS011;37458;49.428;8.646;2023-02-14T13:47:14;28.77;;;19.63;;
51366;SDS011;37458;49.428;8.646;2023-02-14T13:49:45;31.70;;;20.40;;
51366;SDS011;37458;49.428;8.646;2023-02-14T13:52:12;30.77;;;21.43;;
51366;SDS011;37458;49.428;8.646;2023-02-14T13:54:42;30.03;;;19.33;;
51366;SDS011;37458;49.428;8.646;2023-02-14T13:57:31;29.90;;;19.93;;
51366;SDS011;37458;49.428;8.646;2023-02-14T14:00:20;30.97;;;19.37;;
51366;SDS011;37458;49.428;8.646;2023-02-14T14:02:47;29.60;;;20.60;;
51366;SDS011;37458;49.428;8.646;2023-02-14T14:10:45;29.87;;;19.17;;
51366;SDS011;37458;49.428;8.646;2023-02-14T14:18:41;32.67;;;20.80;;
51366;SDS011;37458;49.428;8.646;2023-02-14T14:21:23;36.63;;;23.10;;
51366;SDS011;37458;49.428;8.646;2023-02-14T14:26:36;34.17;;;19.97;;
51366;SDS011;37458;49.428;8.646;2023-02-14T14:29:08;35.83;;;22.57;;
51366;SDS011;37458;49.428;8.646;2023-02-14T14:31:34;37.07;;;22.00;;
51366;SDS011;37458;49.428;8.646;2023-02-14T14:34:01;33.10;;;21.20;;
51366;SDS011;37458;49.428;8.646;2023-02-14T14:36:27;37.27;;;23.20;;
51366;SDS011;37458;49.428;8.646;2023-02-14T14:38:53;35.90;;;22.50;;
51366;SDS011;37458;49.428;8.646;2023-02-14T14:41:19;35.50;;;21.57;;
51366;SDS011;37458;49.428;8.646;2023-02-14T14:43:51;37.53;;;22.43;;
51366;SDS011;37458;49.428;8.646;2023-02-14T14:46:18;35.47;;;22.30;;
51366;SDS011;37458;49.428;8.646;2023-02-14T14:48:44;32.97;;;21.20;;
51366;SDS011;37458;49.428;8.646;2023-02-14T14:51:31;38.57;;;21.63;;
51366;SDS011;37458;49.428;8.646;2023-02-14T14:54:02;30.80;;;21.00;;
51366;SDS011;37458;49.428;8.646;2023-02-14T14:56:30;32.17;;;21.57;;
51366;SDS011;37458;49.428;8.646;2023-02-14T14:58:57;34.33;;;22.30;;
51366;SDS011;37458;49.428;8.646;2023-02-14T15:04:06;32.93;;;21.67;;
51366;SDS011;37458;49.428;8.646;2023-02-14T15:06:32;32.43;;;22.43;;
51366;SDS011;37458;49.428;8.646;2023-02-14T15:09:09;34.40;;;22.07;;
51366;SDS011;37458;49.428;8.646;2023-02-14T15:11:35;33.83;;;22.47;;
51366;SDS011;37458;49.428;8.646;2023-02-14T15:14:21;32.33;;;21.67;;
51366;SDS011;37458;49.428;8.646;2023-02-14T15:16:49;41.13;;;21.90;;
51366;SDS011;37458;49.428;8.646;2023-02-14T15:19:17;35.00;;;25.80;;
51366;SDS011;37458;49.428;8.646;2023-02-14T15:21:44;34.23;;;22.57;;
51366;SDS011;37458;49.428;8.646;2023-02-14T15:24:15;35.07;;;24.40;;
51366;SDS011;37458;49.428;8.646;2023-02-14T15:26:42;34.27;;;23.30;;
51366;SDS011;37458;49.428;8.646;2023-02-14T15:32:04;35.23;;;22.27;;
51366;SDS011;37458;49.428;8.646;2023-02-14T15:34:31;33.40;;;22.53;;
51366;SDS011;37458;49.428;8.646;2023-02-14T15:36:59;38.03;;;23.63;;
51366;SDS011;37458;49.428;8.646;2023-02-14T15:39:40;32.60;;;22.47;;
51366;SDS011;37458;49.428;8.646;2023-02-14T15:42:27;34.63;;;23.33;;
51366;SDS011;37458;49.428;8.646;2023-02-14T15:47:39;36.47;;;23.33;;
51366;SDS011;37458;49.428;8.646;2023-02-14T15:50:12;33.83;;;23.37;;
51366;SDS011;37458;49.428;8.646;2023-02-14T15:52:39;38.93;;;22.93;;
51366;SDS011;37458;49.428;8.646;2023-02-14T15:55:07;38.87;;;22.40;;
51366;SDS011;37458;49.428;8.646;2023-02-14T15:57:33;35.73;;;22.43;;
51366;SDS011;37458;49.428;8.646;2023-02-14T15:59:59;39.90;;;23.87;;
51366;SDS011;37458;49.428;8.646;2023-02-14T16:02:32;40.97;;;24.73;;
51366;SDS011;37458;49.428;8.646;2023-02-14T16:05:05;44.20;;;26.20;;
51366;SDS011;37458;49.428;8.646;2023-02-14T16:07:32;39.50;;;25.10;;
51366;SDS011;37458;49.428;8.646;2023-02-14T16:12:43;45.97;;;32.00;;
51366;SDS011;37458;49.428;8.646;2023-02-14T16:15:19;48.87;;;29.40;;
51366;SDS011;37458;49.428;8.646;2023-02-14T16:17:45;45.83;;;27.13;;
51366;SDS011;37458;49.428;8.646;2023-02-14T16:22:47;46.87;;;26.37;;
51366;SDS011;37458;49.428;8.646;2023-02-14T16:25:13;46.13;;;27.63;;
51366;SDS011;37458;49.428;8.646;2023-02-14T16:27:40;45.03;;;25.37;;
51366;SDS011;37458;49.428;8.646;2023-02-14T16:30:06;47.73;;;27.93;;
51366;SDS011;37458;49.428;8.646;2023-02-14T16:32:33;51.23;;;28.17;;
51366;SDS011;37458;49.428;8.646;2023-02-14T16:34:59;51.43;;;28.50;;
51366;SDS011;37458;49.428;8.646;2023-02-14T16:37:29;48.40;;;28.70;;
51366;SDS011;37458;49.428;8.646;2023-02-14T16:39:57;47.70;;;27.87;;
51366;SDS011;37458;49.428;8.646;2023-02-14T16:42:24;49.10;;;28.73;;
51366;SDS011;37458;49.428;8.646;2023-02-14T16:44:51;51.10;;;28.07;;
51366;SDS011;37458;49.428;8.646;2023-02-14T16:47:18;51.73;;;30.00;;
51366;SDS011;37458;49.428;8.646;2023-02-14T16:49:44;57.27;;;30.27;;
51366;SDS011;37458;49.428;8.646;2023-02-14T16:52:21;53.67;;;30.03;;
51366;SDS011;37458;49.428;8.646;2023-02-14T16:54:48;55.70;;;28.97;;
51366;SDS011;37458;49.428;8.646;2023-02-14T16:57:17;55.50;;;29.23;;
51366;SDS011;37458;49.428;8.646;2023-02-14T16:59:44;53.80;;;29.17;;
51366;SDS011;37458;49.428;8.646;2023-02-14T17:02:11;53.10;;;29.60;;
51366;SDS011;37458;49.428;8.646;2023-02-14T17:04:37;50.47;;;27.73;;
51366;SDS011;37458;49.428;8.646;2023-02-14T17:07:04;72.90;;;36.63;;
51366;SDS011;37458;49.428;8.646;2023-02-14T17:09:32;69.57;;;35.77;;
51366;SDS011;37458;49.428;8.646;2023-02-14T17:12:02;66.37;;;34.70;;
51366;SDS011;37458;49.428;8.646;2023-02-14T17:14:31;58.00;;;31.77;;
51366;SDS011;37458;49.428;8.646;2023-02-14T17:16:57;55.90;;;29.60;;
51366;SDS011;37458;49.428;8.646;2023-02-14T17:19:24;51.33;;;29.03;;
51366;SDS011;37458;49.428;8.646;2023-02-14T17:21:50;55.53;;;29.03;;
51366;SDS011;37458;49.428;8.646;2023-02-14T17:24:16;51.53;;;28.20;;
51366;SDS011;37458;49.428;8.646;2023-02-14T17:26:42;52.37;;;27.23;;
51366;SDS011;37458;49.428;8.646;2023-02-14T17:29:08;57.20;;;27.77;;
51366;SDS011;37458;49.428;8.646;2023-02-14T17:31:34;58.17;;;30.63;;
51366;SDS011;37458;49.428;8.646;2023-02-14T17:34:00;53.83;;;26.43;;
51366;SDS011;37458;49.428;8.646;2023-02-14T17:36:26;52.07;;;25.70;;
51366;SDS011;37458;49.428;8.646;2023-02-14T17:38:52;47.80;;;25.67;;
51366;SDS011;37458;49.428;8.646;2023-02-14T17:41:22;52.10;;;25.13;;
51366;SDS011;37458;49.428;8.646;2023-02-14T17:43:49;57.57;;;26.03;;
51366;SDS011;37458;49.428;8.646;2023-02-14T17:46:16;55.13;;;26.10;;
51366;SDS011;37458;49.428;8.646;2023-02-14T17:48:45;54.47;;;25.27;;
51366;SDS011;37458;49.428;8.646;2023-02-14T17:51:12;52.50;;;24.57;;
51366;SDS011;37458;49.428;8.646;2023-02-14T17:53:38;70.33;;;26.77;;
51366;SDS011;37458;49.428;8.646;2023-02-14T17:56:26;47.03;;;23.63;;
51366;SDS011;37458;49.428;8.646;2023-02-14T17:58:52;47.90;;;23.87;;
51366;SDS011;37458;49.428;8.646;2023-02-14T18:01:20;52.10;;;25.17;;
51366;SDS011;37458;49.428;8.646;2023-02-14T18:03:46;49.23;;;25.07;;
51366;SDS011;37458;49.428;8.646;2023-02-14T18:06:13;54.73;;;25.27;;
51366;SDS011;37458;49.428;8.646;2023-02-14T18:08:41;53.77;;;25.57;;
51366;SDS011;37458;49.428;8.646;2023-02-14T18:11:10;50.90;;;25.27;;
51366;SDS011;37458;49.428;8.646;2023-02-14T18:13:37;54.77;;;23.53;;
51366;SDS011;37458;49.428;8.646;2023-02-14T18:16:04;48.33;;;23.40;;
51366;SDS011;37458;49.428;8.646;2023-02-14T18:18:30;52.27;;;23.97;;
51366;SDS011;37458;49.428;8.646;2023-02-14T18:20:56;49.20;;;23.70;;
51366;SDS011;37458;49.428;8.646;2023-02-14T18:23:23;142.37;;;23.97;;
51366;SDS011;37458;49.428;8.646;2023-02-14T18:25:49;120.90;;;26.03;;
51366;SDS011;37458;49.428;8.646;2023-02-14T18:28:16;70.37;;;24.80;;
51366;SDS011;37458;49.428;8.646;2023-02-14T18:30:42;81.73;;;22.53;;
51366;SDS011;37458;49.428;8.646;2023-02-14T18:33:08;109.77;;;23.43;;
51366;SDS011;37458;49.428;8.646;2023-02-14T18:35:34;123.53;;;24.93;;
51366;SDS011;37458;49.428;8.646;2023-02-14T18:38:00;56.77;;;22.60;;
51366;SDS011;37458;49.428;8.646;2023-02-14T18:40:26;61.73;;;27.17;;
51366;SDS011;37458;49.428;8.646;2023-02-14T18:42:52;69.27;;;22.87;;
51366;SDS011;37458;49.428;8.646;2023-02-14T18:45:18;60.90;;;23.73;;
51366;SDS011;37458;49.428;8.646;2023-02-14T18:47:44;72.03;;;22.87;;
51366;SDS011;37458;49.428;8.646;2023-02-14T18:50:10;85.83;;;22.10;;
51366;SDS011;37458;49.428;8.646;2023-02-14T18:52:36;91.57;;;24.40;;
51366;SDS011;37458;49.428;8.646;2023-02-14T18:55:03;63.07;;;21.57;;
51366;SDS011;37458;49.428;8.646;2023-02-14T18:57:29;141.37;;;24.20;;
51366;SDS011;37458;49.428;8.646;2023-02-14T18:59:55;79.67;;;21.80;;
51366;SDS011;37458;49.428;8.646;2023-02-14T19:02:21;62.17;;;22.97;;
51366;SDS011;37458;49.428;8.646;2023-02-14T19:04:47;98.50;;;22.80;;
51366;SDS011;37458;49.428;8.646;2023-02-14T19:07:13;94.20;;;23.13;;
51366;SDS011;37458;49.428;8.646;2023-02-14T19:09:39;72.33;;;22.27;;
51366;SDS011;37458;49.428;8.646;2023-02-14T19:12:07;108.20;;;23.57;;
51366;SDS011;37458;49.428;8.646;2023-02-14T19:14:33;131.70;;;24.60;;
51366;SDS011;37458;49.428;8.646;2023-02-14T19:16:59;173.40;;;24.07;;
51366;SDS011;37458;49.428;8.646;2023-02-14T19:19:25;89.07;;;23.30;;
51366;SDS011;37458;49.428;8.646;2023-02-14T19:21:51;59.67;;;21.87;;
51366;SDS011;37458;49.428;8.646;2023-02-14T19:24:17;158.50;;;25.90;;
51366;SDS011;37458;49.428;8.646;2023-02-14T19:26:43;95.90;;;22.67;;
51366;SDS011;37458;49.428;8.646;2023-02-14T19:29:13;171.17;;;25.50;;
51366;SDS011;37458;49.428;8.646;2023-02-14T19:31:41;115.53;;;23.77;;
51366;SDS011;37458;49.428;8.646;2023-02-14T19:34:07;94.30;;;24.13;;
51366;SDS011;37458;49.428;8.646;2023-02-14T19:36:38;114.07;;;23.73;;
51366;SDS011;37458;49.428;8.646;2023-02-14T19:39:04;90.53;;;24.13;;
51366;SDS011;37458;49.428;8.646;2023-02-14T19:41:30;67.83;;;23.47;;
51366;SDS011;37458;49.428;8.646;2023-02-14T19:43:58;175.53;;;24.67;;
51366;SDS011;37458;49.428;8.646;2023-02-14T19:46:25;215.03;;;25.57;;
51366;SDS011;37458;49.428;8.646;2023-02-14T19:48:51;211.30;;;25.03;;
51366;SDS011;37458;49.428;8.646;2023-02-14T19:51:35;114.73;;;24.80;;
51366;SDS011;37458;49.428;8.646;2023-02-14T19:54:03;146.23;;;24.50;;
51366;SDS011;37458;49.428;8.646;2023-02-14T19:56:30;134.57;;;25.47;;
51366;SDS011;37458;49.428;8.646;2023-02-14T19:58:57;144.57;;;26.20;;
51366;SDS011;37458;49.428;8.646;2023-02-14T20:01:31;130.30;;;25.23;;
51366;SDS011;37458;49.428;8.646;2023-02-14T20:03:58;225.70;;;26.43;;
51366;SDS011;37458;49.428;8.646;2023-02-14T20:06:24;216.60;;;45.33;;
51366;SDS011;37458;49.428;8.646;2023-02-14T20:08:51;205.40;;;41.17;;
51366;SDS011;37458;49.428;8.646;2023-02-14T20:11:28;195.30;;;61.33;;
51366;SDS011;37458;49.428;8.646;2023-02-14T20:13:54;379.17;;;128.13;;
51366;SDS011;37458;49.428;8.646;2023-02-14T20:16:21;170.97;;;58.30;;
51366;SDS011;37458;49.428;8.646;2023-02-14T20:18:47;234.87;;;27.87;;
51366;SDS011;37458;49.428;8.646;2023-02-14T20:21:14;229.23;;;28.33;;
51366;SDS011;37458;49.428;8.646;2023-02-14T20:23:41;213.43;;;26.60;;
51366;SDS011;37458;49.428;8.646;2023-02-14T20:26:11;172.57;;;25.07;;
51366;SDS011;37458;49.428;8.646;2023-02-14T20:28:38;211.67;;;26.40;;
51366;SDS011;37458;49.428;8.646;2023-02-14T20:31:11;182.23;;;26.70;;
51366;SDS011;37458;49.428;8.646;2023-02-14T20:33:37;184.27;;;25.47;;
51366;SDS011;37458;49.428;8.646;2023-02-14T20:36:03;187.17;;;26.27;;
51366;SDS011;37458;49.428;8.646;2023-02-14T20:38:31;143.97;;;26.33;;
51366;SDS011;37458;49.428;8.646;2023-02-14T20:40:57;247.87;;;26.90;;
51366;SDS011;37458;49.428;8.646;2023-02-14T20:43:23;236.00;;;24.57;;
51366;SDS011;37458;49.428;8.646;2023-02-14T20:45:49;191.40;;;22.73;;
51366;SDS011;37458;49.428;8.646;2023-02-14T20:48:15;399.23;;;27.43;;
51366;SDS011;37458;49.428;8.646;2023-02-14T20:50:41;332.83;;;27.17;;
51366;SDS011;37458;49.428;8.646;2023-02-14T20:53:07;227.87;;;26.37;;
51366;SDS011;37458;49.428;8.646;2023-02-14T20:55:33;214.23;;;28.83;;
51366;SDS011;37458;49.428;8.646;2023-02-14T20:58:05;95.37;;;23.90;;
51366;SDS011;37458;49.428;8.646;2023-02-14T21:00:31;197.90;;;25.40;;
51366;SDS011;37458;49.428;8.646;2023-02-14T21:02:58;202.60;;;25.37;;
51366;SDS011;37458;49.428;8.646;2023-02-14T21:05:23;180.03;;;24.87;;
51366;SDS011;37458;49.428;8.646;2023-02-14T21:07:50;129.67;;;23.93;;
51366;SDS011;37458;49.428;8.646;2023-02-14T21:10:16;201.10;;;26.03;;
51366;SDS011;37458;49.428;8.646;2023-02-14T21:12:42;141.60;;;26.83;;
51366;SDS011;37458;49.428;8.646;2023-02-14T21:15:08;145.50;;;24.60;;
51366;SDS011;37458;49.428;8.646;2023-02-14T21:17:36;229.50;;;25.10;;
51366;SDS011;37458;49.428;8.646;2023-02-14T21:20:03;320.23;;;26.27;;
51366;SDS011;37458;49.428;8.646;2023-02-14T21:22:30;99.37;;;21.17;;
51366;SDS011;37458;49.428;8.646;2023-02-14T21:24:56;142.20;;;23.53;;
51366;SDS011;37458;49.428;8.646;2023-02-14T21:27:22;138.83;;;22.83;;
51366;SDS011;37458;49.428;8.646;2023-02-14T21:29:48;200.37;;;21.90;;
51366;SDS011;37458;49.428;8.646;2023-02-14T21:32:14;158.03;;;19.20;;
51366;SDS011;37458;49.428;8.646;2023-02-14T21:34:40;116.53;;;19.50;;
51366;SDS011;37458;49.428;8.646;2023-02-14T21:37:06;255.30;;;21.27;;
51366;SDS011;37458;49.428;8.646;2023-02-14T21:39:31;163.53;;;20.57;;
